sensor_id;sensor_type;location;lat;lon;timestamp;temperature;humidity
46309;DHT22;32037;50.820;6.494;2023-04-25T00:01:07;13.10;82.10
46309;DHT22;32037;50.820;6.494;2023-04-25T00:03:36;13.10;82.30
46309;DHT22;32037;50.820;6.494;2023-04-25T00:06:06;13.20;82.30
46309;DHT22;32037;50.820;6.494;2023-04-25T00:08:35;13.10;82.00
46309;DHT22;32037;50.820;6.494;2023-04-25T00:11:06;13.10;82.30
46309;DHT22;32037;50.820;6.494;2023-04-25T00:13:37;13.20;82.40
46309;DHT22;32037;50.820;6.494;2023-04-25T00:16:08;13.20;82.50
46309;DHT22;32037;50.820;6.494;2023-04-25T00:18:37;13.10;82.30
46309;DHT22;32037;50.820;6.494;2023-04-25T00:21:06;13.10;82.40
46309;DHT22;32037;50.820;6.494;2023-04-25T00:23:35;13.10;82.60
46309;DHT22;32037;50.820;6.494;2023-04-25T00:26:05;13.10;82.60
46309;DHT22;32037;50.820;6.494;2023-04-25T00:28:34;13.10;82.40
46309;DHT22;32037;50.820;6.494;2023-04-25T00:31:03;13.10;82.40
46309;DHT22;32037;50.820;6.494;2023-04-25T00:33:32;13.10;82.30
46309;DHT22;32037;50.820;6.494;2023-04-25T00:36:00;13.10;82.10
46309;DHT22;32037;50.820;6.494;2023-04-25T00:38:29;13.10;82.20
46309;DHT22;32037;50.820;6.494;2023-04-25T00:40:58;13.10;82.10
46309;DHT22;32037;50.820;6.494;2023-04-25T00:43:28;13.10;82.30
46309;DHT22;32037;50.820;6.494;2023-04-25T00:46:00;13.10;82.40
46309;DHT22;32037;50.820;6.494;2023-04-25T00:48:28;13.10;82.30
46309;DHT22;32037;50.820;6.494;2023-04-25T00:50:58;13.10;82.20
46309;DHT22;32037;50.820;6.494;2023-04-25T00:53:28;13.10;82.30
46309;DHT22;32037;50.820;6.494;2023-04-25T00:55:56;13.10;82.40
46309;DHT22;32037;50.820;6.494;2023-04-25T00:58:25;13.10;82.40
46309;DHT22;32037;50.820;6.494;2023-04-25T01:00:56;13.10;82.50
46309;DHT22;32037;50.820;6.494;2023-04-25T01:03:25;13.10;82.30
46309;DHT22;32037;50.820;6.494;2023-04-25T01:05:56;13.10;82.40
46309;DHT22;32037;50.820;6.494;2023-04-25T01:08:24;13.00;82.50
46309;DHT22;32037;50.820;6.494;2023-04-25T01:10:53;13.10;82.50
46309;DHT22;32037;50.820;6.494;2023-04-25T01:13:22;13.10;82.60
46309;DHT22;32037;50.820;6.494;2023-04-25T01:15:50;13.00;82.60
46309;DHT22;32037;50.820;6.494;2023-04-25T01:18:21;13.00;82.60
46309;DHT22;32037;50.820;6.494;2023-04-25T01:20:51;13.00;82.60
46309;DHT22;32037;50.820;6.494;2023-04-25T01:23:23;13.00;82.60
46309;DHT22;32037;50.820;6.494;2023-04-25T01:25:52;13.00;82.40
46309;DHT22;32037;50.820;6.494;2023-04-25T01:28:21;13.00;82.50
46309;DHT22;32037;50.820;6.494;2023-04-25T01:30:51;13.00;82.60
46309;DHT22;32037;50.820;6.494;2023-04-25T01:33:21;13.00;82.70
46309;DHT22;32037;50.820;6.494;2023-04-25T01:35:50;13.00;82.30
46309;DHT22;32037;50.820;6.494;2023-04-25T01:38:19;13.00;82.60
46309;DHT22;32037;50.820;6.494;2023-04-25T01:40:51;13.00;82.50
46309;DHT22;32037;50.820;6.494;2023-04-25T01:43:21;13.00;82.70
46309;DHT22;32037;50.820;6.494;2023-04-25T01:45:50;13.00;82.60
46309;DHT22;32037;50.820;6.494;2023-04-25T01:48:19;13.00;82.50
46309;DHT22;32037;50.820;6.494;2023-04-25T01:50:48;12.90;82.40
46309;DHT22;32037;50.820;6.494;2023-04-25T01:53:17;13.00;82.50
46309;DHT22;32037;50.820;6.494;2023-04-25T01:55:46;12.90;82.40
46309;DHT22;32037;50.820;6.494;2023-04-25T01:58:20;12.90;82.60
46309;DHT22;32037;50.820;6.494;2023-04-25T02:01:04;12.90;82.60
46309;DHT22;32037;50.820;6.494;2023-04-25T02:03:41;12.90;82.70
46309;DHT22;32037;50.820;6.494;2023-04-25T02:06:19;12.90;82.70
46309;DHT22;32037;50.820;6.494;2023-04-25T02:08:48;12.90;82.70
46309;DHT22;32037;50.820;6.494;2023-04-25T02:11:17;12.90;82.80
46309;DHT22;32037;50.820;6.494;2023-04-25T02:14:16;12.90;82.80
46309;DHT22;32037;50.820;6.494;2023-04-25T02:16:51;12.90;82.60
46309;DHT22;32037;50.820;6.494;2023-04-25T02:19:21;12.90;82.70
46309;DHT22;32037;50.820;6.494;2023-04-25T02:21:49;12.90;82.80
46309;DHT22;32037;50.820;6.494;2023-04-25T02:24:18;12.90;82.80
46309;DHT22;32037;50.820;6.494;2023-04-25T02:26:46;12.90;82.80
46309;DHT22;32037;50.820;6.494;2023-04-25T02:29:18;12.90;82.60
46309;DHT22;32037;50.820;6.494;2023-04-25T02:31:46;12.80;82.70
46309;DHT22;32037;50.820;6.494;2023-04-25T02:34:16;12.90;82.70
46309;DHT22;32037;50.820;6.494;2023-04-25T02:36:45;12.80;82.60
46309;DHT22;32037;50.820;6.494;2023-04-25T02:39:17;12.80;82.70
46309;DHT22;32037;50.820;6.494;2023-04-25T02:41:49;12.80;82.60
46309;DHT22;32037;50.820;6.494;2023-04-25T02:44:19;12.80;82.60
46309;DHT22;32037;50.820;6.494;2023-04-25T02:46:48;12.80;82.80
46309;DHT22;32037;50.820;6.494;2023-04-25T02:49:16;12.90;82.70
46309;DHT22;32037;50.820;6.494;2023-04-25T02:51:45;12.90;82.70
46309;DHT22;32037;50.820;6.494;2023-04-25T02:54:14;12.80;82.70
46309;DHT22;32037;50.820;6.494;2023-04-25T02:56:46;12.80;82.70
46309;DHT22;32037;50.820;6.494;2023-04-25T02:59:23;12.80;82.80
46309;DHT22;32037;50.820;6.494;2023-04-25T03:01:52;12.80;82.80
46309;DHT22;32037;50.820;6.494;2023-04-25T03:04:20;12.80;82.70
46309;DHT22;32037;50.820;6.494;2023-04-25T03:06:51;12.80;82.80
46309;DHT22;32037;50.820;6.494;2023-04-25T03:09:21;12.80;82.80
46309;DHT22;32037;50.820;6.494;2023-04-25T03:11:51;12.80;82.60
46309;DHT22;32037;50.820;6.494;2023-04-25T03:14:22;12.80;82.70
46309;DHT22;32037;50.820;6.494;2023-04-25T03:16:51;12.80;82.40
46309;DHT22;32037;50.820;6.494;2023-04-25T03:19:20;12.80;82.60
46309;DHT22;32037;50.820;6.494;2023-04-25T03:21:48;12.80;82.60
46309;DHT22;32037;50.820;6.494;2023-04-25T03:24:17;12.80;82.60
46309;DHT22;32037;50.820;6.494;2023-04-25T03:26:46;12.80;82.70
46309;DHT22;32037;50.820;6.494;2023-04-25T03:29:14;12.70;82.60
46309;DHT22;32037;50.820;6.494;2023-04-25T03:31:45;12.80;82.70
46309;DHT22;32037;50.820;6.494;2023-04-25T03:34:14;12.70;82.60
46309;DHT22;32037;50.820;6.494;2023-04-25T03:36:43;12.70;82.60
46309;DHT22;32037;50.820;6.494;2023-04-25T03:39:13;12.70;82.30
46309;DHT22;32037;50.820;6.494;2023-04-25T03:41:47;12.80;82.60
46309;DHT22;32037;50.820;6.494;2023-04-25T03:44:17;12.80;82.70
46309;DHT22;32037;50.820;6.494;2023-04-25T03:46:47;12.70;82.60
46309;DHT22;32037;50.820;6.494;2023-04-25T03:49:16;12.70;82.60
46309;DHT22;32037;50.820;6.494;2023-04-25T03:52:11;12.70;82.60
46309;DHT22;32037;50.820;6.494;2023-04-25T03:54:40;12.70;82.50
46309;DHT22;32037;50.820;6.494;2023-04-25T03:57:13;12.70;82.60
46309;DHT22;32037;50.820;6.494;2023-04-25T03:59:42;12.70;82.70
46309;DHT22;32037;50.820;6.494;2023-04-25T04:02:15;12.70;82.70
46309;DHT22;32037;50.820;6.494;2023-04-25T04:04:44;12.70;82.70
46309;DHT22;32037;50.820;6.494;2023-04-25T04:07:14;12.70;82.60
46309;DHT22;32037;50.820;6.494;2023-04-25T04:09:46;12.70;82.70
46309;DHT22;32037;50.820;6.494;2023-04-25T04:12:22;12.70;82.70
46309;DHT22;32037;50.820;6.494;2023-04-25T04:14:51;12.70;82.80
46309;DHT22;32037;50.820;6.494;2023-04-25T04:17:21;12.70;82.80
46309;DHT22;32037;50.820;6.494;2023-04-25T04:19:51;12.70;82.70
46309;DHT22;32037;50.820;6.494;2023-04-25T04:22:20;12.70;82.70
46309;DHT22;32037;50.820;6.494;2023-04-25T04:24:51;12.60;82.60
46309;DHT22;32037;50.820;6.494;2023-04-25T04:27:43;12.70;82.70
46309;DHT22;32037;50.820;6.494;2023-04-25T04:30:22;12.60;82.60
46309;DHT22;32037;50.820;6.494;2023-04-25T04:32:58;12.70;82.70
46309;DHT22;32037;50.820;6.494;2023-04-25T04:35:29;12.60;82.60
46309;DHT22;32037;50.820;6.494;2023-04-25T04:37:58;12.60;82.60
46309;DHT22;32037;50.820;6.494;2023-04-25T04:40:38;12.60;82.60
46309;DHT22;32037;50.820;6.494;2023-04-25T04:43:34;12.60;82.70
46309;DHT22;32037;50.820;6.494;2023-04-25T04:46:22;12.60;82.70
46309;DHT22;32037;50.820;6.494;2023-04-25T04:49:11;12.60;82.70
46309;DHT22;32037;50.820;6.494;2023-04-25T04:51:57;12.60;82.70
46309;DHT22;32037;50.820;6.494;2023-04-25T04:54:36;12.60;82.60
46309;DHT22;32037;50.820;6.494;2023-04-25T04:57:21;12.60;82.60
46309;DHT22;32037;50.820;6.494;2023-04-25T04:59:57;12.60;82.70
46309;DHT22;32037;50.820;6.494;2023-04-25T05:02:55;12.60;82.60
46309;DHT22;32037;50.820;6.494;2023-04-25T05:05:41;12.60;82.70
46309;DHT22;32037;50.820;6.494;2023-04-25T05:08:28;12.60;82.70
46309;DHT22;32037;50.820;6.494;2023-04-25T05:11:17;12.60;82.60
46309;DHT22;32037;50.820;6.494;2023-04-25T05:14:03;12.50;82.70
46309;DHT22;32037;50.820;6.494;2023-04-25T05:16:38;12.50;82.60
46309;DHT22;32037;50.820;6.494;2023-04-25T05:19:33;12.60;82.80
46309;DHT22;32037;50.820;6.494;2023-04-25T05:22:27;12.50;82.60
46309;DHT22;32037;50.820;6.494;2023-04-25T05:25:19;12.50;82.60
46309;DHT22;32037;50.820;6.494;2023-04-25T05:27:59;12.50;82.60
46309;DHT22;32037;50.820;6.494;2023-04-25T05:30:40;12.50;82.60
46309;DHT22;32037;50.820;6.494;2023-04-25T05:33:18;12.50;82.40
46309;DHT22;32037;50.820;6.494;2023-04-25T05:35:47;12.50;82.50
46309;DHT22;32037;50.820;6.494;2023-04-25T05:38:18;12.50;82.60
46309;DHT22;32037;50.820;6.494;2023-04-25T05:41:05;12.50;82.50
46309;DHT22;32037;50.820;6.494;2023-04-25T05:44:04;12.50;82.50
46309;DHT22;32037;50.820;6.494;2023-04-25T05:46:39;12.50;82.60
46309;DHT22;32037;50.820;6.494;2023-04-25T05:49:21;12.50;82.50
46309;DHT22;32037;50.820;6.494;2023-04-25T05:52:05;12.50;82.70
46309;DHT22;32037;50.820;6.494;2023-04-25T05:54:47;12.50;82.40
46309;DHT22;32037;50.820;6.494;2023-04-25T05:57:21;12.50;82.50
46309;DHT22;32037;50.820;6.494;2023-04-25T05:59:50;12.50;82.60
46309;DHT22;32037;50.820;6.494;2023-04-25T06:02:20;12.40;82.60
46309;DHT22;32037;50.820;6.494;2023-04-25T06:04:50;12.50;82.60
46309;DHT22;32037;50.820;6.494;2023-04-25T06:07:22;12.50;82.70
46309;DHT22;32037;50.820;6.494;2023-04-25T06:09:52;12.50;82.70
46309;DHT22;32037;50.820;6.494;2023-04-25T06:12:21;12.40;82.60
46309;DHT22;32037;50.820;6.494;2023-04-25T06:14:51;12.50;82.40
46309;DHT22;32037;50.820;6.494;2023-04-25T06:17:20;12.40;82.40
46309;DHT22;32037;50.820;6.494;2023-04-25T06:19:49;12.40;82.30
46309;DHT22;32037;50.820;6.494;2023-04-25T06:22:18;12.40;82.20
46309;DHT22;32037;50.820;6.494;2023-04-25T06:24:47;12.50;82.40
46309;DHT22;32037;50.820;6.494;2023-04-25T06:27:17;12.50;82.20
46309;DHT22;32037;50.820;6.494;2023-04-25T06:29:46;12.40;82.20
46309;DHT22;32037;50.820;6.494;2023-04-25T06:32:15;12.50;82.30
46309;DHT22;32037;50.820;6.494;2023-04-25T06:34:45;12.50;82.40
46309;DHT22;32037;50.820;6.494;2023-04-25T06:37:14;12.50;82.00
46309;DHT22;32037;50.820;6.494;2023-04-25T06:39:43;12.50;82.10
46309;DHT22;32037;50.820;6.494;2023-04-25T06:42:11;12.40;82.00
46309;DHT22;32037;50.820;6.494;2023-04-25T06:44:57;12.40;81.90
46309;DHT22;32037;50.820;6.494;2023-04-25T06:47:28;12.40;81.80
46309;DHT22;32037;50.820;6.494;2023-04-25T06:49:59;12.40;81.90
46309;DHT22;32037;50.820;6.494;2023-04-25T06:52:29;12.40;81.70
46309;DHT22;32037;50.820;6.494;2023-04-25T06:55:01;12.40;81.70
46309;DHT22;32037;50.820;6.494;2023-04-25T06:57:43;12.40;81.50
46309;DHT22;32037;50.820;6.494;2023-04-25T07:00:36;12.40;81.70
46309;DHT22;32037;50.820;6.494;2023-04-25T07:03:05;12.40;81.50
46309;DHT22;32037;50.820;6.494;2023-04-25T07:05:34;12.40;81.30
46309;DHT22;32037;50.820;6.494;2023-04-25T07:08:02;12.40;81.50
46309;DHT22;32037;50.820;6.494;2023-04-25T07:10:31;12.40;81.40
46309;DHT22;32037;50.820;6.494;2023-04-25T07:13:00;12.40;81.10
46309;DHT22;32037;50.820;6.494;2023-04-25T07:15:30;12.40;81.50
46309;DHT22;32037;50.820;6.494;2023-04-25T07:18:01;12.40;81.60
46309;DHT22;32037;50.820;6.494;2023-04-25T07:20:30;12.40;81.50
46309;DHT22;32037;50.820;6.494;2023-04-25T07:23:01;12.40;81.10
46309;DHT22;32037;50.820;6.494;2023-04-25T07:25:30;12.40;80.70
46309;DHT22;32037;50.820;6.494;2023-04-25T07:27:59;12.40;81.50
46309;DHT22;32037;50.820;6.494;2023-04-25T07:30:28;12.40;81.30
46309;DHT22;32037;50.820;6.494;2023-04-25T07:32:57;12.40;80.30
46309;DHT22;32037;50.820;6.494;2023-04-25T07:35:27;12.40;81.10
46309;DHT22;32037;50.820;6.494;2023-04-25T07:37:56;12.40;81.10
46309;DHT22;32037;50.820;6.494;2023-04-25T07:40:26;12.30;81.20
46309;DHT22;32037;50.820;6.494;2023-04-25T07:43:01;12.30;81.40
46309;DHT22;32037;50.820;6.494;2023-04-25T07:45:45;12.30;81.10
46309;DHT22;32037;50.820;6.494;2023-04-25T07:48:17;12.40;81.20
46309;DHT22;32037;50.820;6.494;2023-04-25T07:50:49;12.40;80.80
46309;DHT22;32037;50.820;6.494;2023-04-25T07:53:17;12.30;80.50
46309;DHT22;32037;50.820;6.494;2023-04-25T07:55:53;12.30;80.90
46309;DHT22;32037;50.820;6.494;2023-04-25T07:58:25;12.30;80.60
46309;DHT22;32037;50.820;6.494;2023-04-25T08:00:58;12.30;80.70
46309;DHT22;32037;50.820;6.494;2023-04-25T08:03:39;12.30;81.30
46309;DHT22;32037;50.820;6.494;2023-04-25T08:06:20;12.30;81.40
46309;DHT22;32037;50.820;6.494;2023-04-25T08:08:58;12.30;81.40
46309;DHT22;32037;50.820;6.494;2023-04-25T08:11:34;12.30;81.20
46309;DHT22;32037;50.820;6.494;2023-04-25T08:14:03;12.30;81.00
46309;DHT22;32037;50.820;6.494;2023-04-25T08:16:33;12.30;80.70
46309;DHT22;32037;50.820;6.494;2023-04-25T08:19:02;12.30;80.60
46309;DHT22;32037;50.820;6.494;2023-04-25T08:21:34;12.30;81.00
46309;DHT22;32037;50.820;6.494;2023-04-25T08:24:06;12.30;80.80
46309;DHT22;32037;50.820;6.494;2023-04-25T08:26:38;12.30;82.00
46309;DHT22;32037;50.820;6.494;2023-04-25T08:29:09;12.30;80.90
46309;DHT22;32037;50.820;6.494;2023-04-25T08:31:40;12.30;80.80
46309;DHT22;32037;50.820;6.494;2023-04-25T08:34:09;12.30;80.50
46309;DHT22;32037;50.820;6.494;2023-04-25T08:36:49;12.30;80.60
46309;DHT22;32037;50.820;6.494;2023-04-25T08:39:37;12.30;79.60
46309;DHT22;32037;50.820;6.494;2023-04-25T08:42:31;12.30;79.90
46309;DHT22;32037;50.820;6.494;2023-04-25T08:45:03;12.30;79.60
46309;DHT22;32037;50.820;6.494;2023-04-25T08:47:38;12.30;79.60
46309;DHT22;32037;50.820;6.494;2023-04-25T08:50:09;12.30;79.90
46309;DHT22;32037;50.820;6.494;2023-04-25T08:52:44;12.30;79.90
46309;DHT22;32037;50.820;6.494;2023-04-25T08:55:14;12.30;80.20
46309;DHT22;32037;50.820;6.494;2023-04-25T08:57:43;12.30;80.30
46309;DHT22;32037;50.820;6.494;2023-04-25T09:00:13;12.30;80.10
46309;DHT22;32037;50.820;6.494;2023-04-25T09:02:44;12.30;79.30
46309;DHT22;32037;50.820;6.494;2023-04-25T09:05:14;12.30;80.00
46309;DHT22;32037;50.820;6.494;2023-04-25T09:07:45;12.30;80.00
46309;DHT22;32037;50.820;6.494;2023-04-25T09:10:16;12.30;80.30
46309;DHT22;32037;50.820;6.494;2023-04-25T09:12:53;12.20;79.90
46309;DHT22;32037;50.820;6.494;2023-04-25T09:15:31;12.30;80.00
46309;DHT22;32037;50.820;6.494;2023-04-25T09:18:08;12.30;80.00
46309;DHT22;32037;50.820;6.494;2023-04-25T09:20:42;12.30;79.60
46309;DHT22;32037;50.820;6.494;2023-04-25T09:23:15;12.30;79.70
46309;DHT22;32037;50.820;6.494;2023-04-25T09:25:47;12.30;80.00
46309;DHT22;32037;50.820;6.494;2023-04-25T09:28:19;12.20;79.70
46309;DHT22;32037;50.820;6.494;2023-04-25T09:30:55;12.30;79.90
46309;DHT22;32037;50.820;6.494;2023-04-25T09:33:45;12.20;79.40
46309;DHT22;32037;50.820;6.494;2023-04-25T09:36:16;12.30;80.00
46309;DHT22;32037;50.820;6.494;2023-04-25T09:39:12;12.30;80.00
46309;DHT22;32037;50.820;6.494;2023-04-25T09:41:53;12.30;79.50
46309;DHT22;32037;50.820;6.494;2023-04-25T09:44:23;12.20;79.50
46309;DHT22;32037;50.820;6.494;2023-04-25T09:46:54;12.30;79.70
46309;DHT22;32037;50.820;6.494;2023-04-25T09:49:28;12.20;79.40
46309;DHT22;32037;50.820;6.494;2023-04-25T09:52:13;12.20;79.40
46309;DHT22;32037;50.820;6.494;2023-04-25T09:55:08;12.30;79.00
46309;DHT22;32037;50.820;6.494;2023-04-25T09:57:36;12.30;79.40
46309;DHT22;32037;50.820;6.494;2023-04-25T10:00:09;12.20;79.20
46309;DHT22;32037;50.820;6.494;2023-04-25T10:02:47;12.20;79.30
46309;DHT22;32037;50.820;6.494;2023-04-25T10:05:39;12.20;79.40
46309;DHT22;32037;50.820;6.494;2023-04-25T10:08:12;12.20;79.30
46309;DHT22;32037;50.820;6.494;2023-04-25T10:10:42;12.20;79.40
46309;DHT22;32037;50.820;6.494;2023-04-25T10:13:11;12.20;80.50
46309;DHT22;32037;50.820;6.494;2023-04-25T10:15:42;12.20;78.90
46309;DHT22;32037;50.820;6.494;2023-04-25T10:18:20;12.20;78.90
46309;DHT22;32037;50.820;6.494;2023-04-25T10:21:01;12.20;79.20
46309;DHT22;32037;50.820;6.494;2023-04-25T10:23:31;12.20;78.80
46309;DHT22;32037;50.820;6.494;2023-04-25T10:26:03;12.20;78.60
46309;DHT22;32037;50.820;6.494;2023-04-25T10:28:55;12.20;78.20
46309;DHT22;32037;50.820;6.494;2023-04-25T10:31:24;12.20;78.90
46309;DHT22;32037;50.820;6.494;2023-04-25T10:33:53;12.30;78.70
46309;DHT22;32037;50.820;6.494;2023-04-25T10:36:23;12.20;78.60
46309;DHT22;32037;50.820;6.494;2023-04-25T10:38:54;12.20;78.50
46309;DHT22;32037;50.820;6.494;2023-04-25T10:41:27;12.20;78.60
46309;DHT22;32037;50.820;6.494;2023-04-25T10:44:00;12.20;78.40
46309;DHT22;32037;50.820;6.494;2023-04-25T10:46:29;12.20;78.50
46309;DHT22;32037;50.820;6.494;2023-04-25T10:48:59;12.20;78.60
46309;DHT22;32037;50.820;6.494;2023-04-25T10:51:29;12.20;78.90
46309;DHT22;32037;50.820;6.494;2023-04-25T10:54:19;12.20;79.00
46309;DHT22;32037;50.820;6.494;2023-04-25T10:56:50;12.20;78.80
46309;DHT22;32037;50.820;6.494;2023-04-25T10:59:20;12.30;78.10
46309;DHT22;32037;50.820;6.494;2023-04-25T11:01:53;12.20;78.10
46309;DHT22;32037;50.820;6.494;2023-04-25T11:04:23;12.20;78.40
46309;DHT22;32037;50.820;6.494;2023-04-25T11:07:03;12.30;78.40
46309;DHT22;32037;50.820;6.494;2023-04-25T11:09:35;12.30;78.60
46309;DHT22;32037;50.820;6.494;2023-04-25T11:12:08;12.30;78.40
46309;DHT22;32037;50.820;6.494;2023-04-25T11:14:41;12.30;78.40
46309;DHT22;32037;50.820;6.494;2023-04-25T11:17:10;12.30;78.40
46309;DHT22;32037;50.820;6.494;2023-04-25T11:19:39;12.30;78.00
46309;DHT22;32037;50.820;6.494;2023-04-25T11:22:07;12.30;78.60
46309;DHT22;32037;50.820;6.494;2023-04-25T11:24:38;12.30;78.90
46309;DHT22;32037;50.820;6.494;2023-04-25T11:27:09;12.30;78.40
46309;DHT22;32037;50.820;6.494;2023-04-25T11:29:37;12.30;78.70
46309;DHT22;32037;50.820;6.494;2023-04-25T11:32:06;12.30;78.90
46309;DHT22;32037;50.820;6.494;2023-04-25T11:34:36;12.30;78.40
46309;DHT22;32037;50.820;6.494;2023-04-25T11:37:04;12.20;78.30
46309;DHT22;32037;50.820;6.494;2023-04-25T11:39:33;12.30;78.10
46309;DHT22;32037;50.820;6.494;2023-04-25T11:42:04;12.30;78.10
46309;DHT22;32037;50.820;6.494;2023-04-25T11:44:41;12.30;78.50
46309;DHT22;32037;50.820;6.494;2023-04-25T11:47:10;12.30;78.30
46309;DHT22;32037;50.820;6.494;2023-04-25T11:49:39;12.30;78.20
46309;DHT22;32037;50.820;6.494;2023-04-25T11:52:07;12.30;78.40
46309;DHT22;32037;50.820;6.494;2023-04-25T11:54:36;12.20;78.00
46309;DHT22;32037;50.820;6.494;2023-04-25T11:57:05;12.30;78.40
46309;DHT22;32037;50.820;6.494;2023-04-25T11:59:35;12.20;78.10
46309;DHT22;32037;50.820;6.494;2023-04-25T12:02:05;12.30;78.10
46309;DHT22;32037;50.820;6.494;2023-04-25T12:04:34;12.20;78.00
46309;DHT22;32037;50.820;6.494;2023-04-25T12:07:04;12.20;78.20
46309;DHT22;32037;50.820;6.494;2023-04-25T12:09:33;12.20;77.80
46309;DHT22;32037;50.820;6.494;2023-04-25T12:12:02;12.30;78.00
46309;DHT22;32037;50.820;6.494;2023-04-25T12:14:33;12.30;78.40
46309;DHT22;32037;50.820;6.494;2023-04-25T12:17:05;12.20;77.60
46309;DHT22;32037;50.820;6.494;2023-04-25T12:19:37;12.20;77.30
46309;DHT22;32037;50.820;6.494;2023-04-25T12:22:20;12.30;77.80
46309;DHT22;32037;50.820;6.494;2023-04-25T12:24:49;12.30;78.20
46309;DHT22;32037;50.820;6.494;2023-04-25T12:27:25;12.30;78.00
46309;DHT22;32037;50.820;6.494;2023-04-25T12:29:56;12.30;78.00
46309;DHT22;32037;50.820;6.494;2023-04-25T12:32:26;12.30;78.30
46309;DHT22;32037;50.820;6.494;2023-04-25T12:34:54;12.30;77.90
46309;DHT22;32037;50.820;6.494;2023-04-25T12:37:23;12.30;77.80
46309;DHT22;32037;50.820;6.494;2023-04-25T12:39:52;12.30;77.80
46309;DHT22;32037;50.820;6.494;2023-04-25T12:42:21;12.40;78.10
46309;DHT22;32037;50.820;6.494;2023-04-25T12:44:49;12.40;78.30
46309;DHT22;32037;50.820;6.494;2023-04-25T12:47:18;12.40;78.00
46309;DHT22;32037;50.820;6.494;2023-04-25T12:49:48;12.40;77.70
46309;DHT22;32037;50.820;6.494;2023-04-25T12:52:16;12.30;78.10
46309;DHT22;32037;50.820;6.494;2023-04-25T12:54:45;12.40;78.40
46309;DHT22;32037;50.820;6.494;2023-04-25T12:57:14;12.30;77.80
46309;DHT22;32037;50.820;6.494;2023-04-25T12:59:42;12.40;77.90
46309;DHT22;32037;50.820;6.494;2023-04-25T13:02:11;12.30;77.80
46309;DHT22;32037;50.820;6.494;2023-04-25T13:04:40;12.40;77.90
46309;DHT22;32037;50.820;6.494;2023-04-25T13:07:10;12.30;77.80
46309;DHT22;32037;50.820;6.494;2023-04-25T13:09:38;12.30;78.00
46309;DHT22;32037;50.820;6.494;2023-04-25T13:12:07;12.30;78.10
46309;DHT22;32037;50.820;6.494;2023-04-25T13:14:35;12.30;78.00
46309;DHT22;32037;50.820;6.494;2023-04-25T13:17:04;12.30;78.20
46309;DHT22;32037;50.820;6.494;2023-04-25T13:19:33;12.40;78.50
46309;DHT22;32037;50.820;6.494;2023-04-25T13:22:02;12.30;78.20
46309;DHT22;32037;50.820;6.494;2023-04-25T13:24:32;12.30;78.10
46309;DHT22;32037;50.820;6.494;2023-04-25T13:27:01;12.30;78.40
46309;DHT22;32037;50.820;6.494;2023-04-25T13:29:30;12.30;78.20
46309;DHT22;32037;50.820;6.494;2023-04-25T13:32:01;12.30;78.90
46309;DHT22;32037;50.820;6.494;2023-04-25T13:34:30;12.30;78.40
46309;DHT22;32037;50.820;6.494;2023-04-25T13:36:58;12.30;78.60
46309;DHT22;32037;50.820;6.494;2023-04-25T13:39:27;12.30;78.00
46309;DHT22;32037;50.820;6.494;2023-04-25T13:41:57;12.30;77.90
46309;DHT22;32037;50.820;6.494;2023-04-25T13:44:26;12.40;79.80
46309;DHT22;32037;50.820;6.494;2023-04-25T13:46:54;12.30;77.90
46309;DHT22;32037;50.820;6.494;2023-04-25T13:49:23;12.30;78.90
46309;DHT22;32037;50.820;6.494;2023-04-25T13:51:51;12.30;77.60
46309;DHT22;32037;50.820;6.494;2023-04-25T13:54:20;12.40;77.70
46309;DHT22;32037;50.820;6.494;2023-04-25T13:56:50;12.30;77.80
46309;DHT22;32037;50.820;6.494;2023-04-25T13:59:20;12.40;77.80
46309;DHT22;32037;50.820;6.494;2023-04-25T14:01:49;12.40;77.70
46309;DHT22;32037;50.820;6.494;2023-04-25T14:04:21;12.30;77.50
46309;DHT22;32037;50.820;6.494;2023-04-25T14:06:50;12.30;76.70
46309;DHT22;32037;50.820;6.494;2023-04-25T14:09:20;12.30;77.20
46309;DHT22;32037;50.820;6.494;2023-04-25T14:11:53;12.40;77.40
46309;DHT22;32037;50.820;6.494;2023-04-25T14:14:23;12.40;77.10
46309;DHT22;32037;50.820;6.494;2023-04-25T14:16:52;12.40;76.50
46309;DHT22;32037;50.820;6.494;2023-04-25T14:19:22;12.40;77.20
46309;DHT22;32037;50.820;6.494;2023-04-25T14:21:50;12.40;77.20
46309;DHT22;32037;50.820;6.494;2023-04-25T14:24:20;12.40;77.30
46309;DHT22;32037;50.820;6.494;2023-04-25T14:26:48;12.40;77.70
46309;DHT22;32037;50.820;6.494;2023-04-25T14:29:17;12.40;77.80
46309;DHT22;32037;50.820;6.494;2023-04-25T14:31:47;12.30;77.70
46309;DHT22;32037;50.820;6.494;2023-04-25T14:34:16;12.40;78.00
46309;DHT22;32037;50.820;6.494;2023-04-25T14:36:45;12.40;78.10
46309;DHT22;32037;50.820;6.494;2023-04-25T14:39:14;12.40;78.00
46309;DHT22;32037;50.820;6.494;2023-04-25T14:41:44;12.40;77.90
46309;DHT22;32037;50.820;6.494;2023-04-25T14:44:13;12.40;77.70
46309;DHT22;32037;50.820;6.494;2023-04-25T14:46:42;12.40;77.90
46309;DHT22;32037;50.820;6.494;2023-04-25T14:49:13;12.40;78.10
46309;DHT22;32037;50.820;6.494;2023-04-25T14:51:42;12.40;78.00
46309;DHT22;32037;50.820;6.494;2023-04-25T14:54:11;12.40;78.10
46309;DHT22;32037;50.820;6.494;2023-04-25T14:56:39;12.40;77.80
46309;DHT22;32037;50.820;6.494;2023-04-25T14:59:09;12.40;77.60
46309;DHT22;32037;50.820;6.494;2023-04-25T15:01:38;12.40;77.30
46309;DHT22;32037;50.820;6.494;2023-04-25T15:04:07;12.40;77.00
46309;DHT22;32037;50.820;6.494;2023-04-25T15:06:38;12.40;77.10
46309;DHT22;32037;50.820;6.494;2023-04-25T15:09:06;12.40;77.50
46309;DHT22;32037;50.820;6.494;2023-04-25T15:11:35;12.40;77.60
46309;DHT22;32037;50.820;6.494;2023-04-25T15:14:04;12.40;75.90
46309;DHT22;32037;50.820;6.494;2023-04-25T15:16:32;12.40;75.70
46309;DHT22;32037;50.820;6.494;2023-04-25T15:19:01;12.50;76.80
46309;DHT22;32037;50.820;6.494;2023-04-25T15:21:31;12.50;77.30
46309;DHT22;32037;50.820;6.494;2023-04-25T15:24:05;12.50;77.10
46309;DHT22;32037;50.820;6.494;2023-04-25T15:26:35;12.50;76.50
46309;DHT22;32037;50.820;6.494;2023-04-25T15:29:04;12.50;76.60
46309;DHT22;32037;50.820;6.494;2023-04-25T15:31:33;12.50;76.10
46309;DHT22;32037;50.820;6.494;2023-04-25T15:34:03;12.50;75.80
46309;DHT22;32037;50.820;6.494;2023-04-25T15:36:32;12.50;75.30
46309;DHT22;32037;50.820;6.494;2023-04-25T15:39:02;12.50;75.70
46309;DHT22;32037;50.820;6.494;2023-04-25T15:41:31;12.50;76.40
46309;DHT22;32037;50.820;6.494;2023-04-25T15:44:00;12.50;76.20
46309;DHT22;32037;50.820;6.494;2023-04-25T15:46:28;12.60;76.30
46309;DHT22;32037;50.820;6.494;2023-04-25T15:49:01;12.60;76.00
46309;DHT22;32037;50.820;6.494;2023-04-25T15:51:30;12.60;76.00
46309;DHT22;32037;50.820;6.494;2023-04-25T15:53:59;12.60;75.30
46309;DHT22;32037;50.820;6.494;2023-04-25T15:56:31;12.60;75.20
46309;DHT22;32037;50.820;6.494;2023-04-25T15:59:00;12.60;75.20
46309;DHT22;32037;50.820;6.494;2023-04-25T16:01:29;12.60;74.60